createdAt,value
2018-12-14T00:00:26.843Z,34.05
2018-12-14T00:00:57.960Z,36.45
2018-12-14T00:01:29.068Z,37.05
2018-12-14T00:02:00.575Z,39.58
2018-12-14T00:02:31.697Z,41.53
2018-12-14T00:03:02.812Z,35.03
2018-12-14T00:03:33.966Z,33.02
2018-12-14T00:04:05.072Z,32.90
2018-12-14T00:04:36.183Z,33.42
2018-12-14T00:05:07.292Z,32.00
2018-12-14T00:05:38.436Z,33.42
2018-12-14T00:06:09.545Z,33.67
2018-12-14T00:06:40.687Z,31.68
2018-12-14T00:07:11.819Z,32.25
2018-12-14T00:07:42.919Z,30.70
2018-12-14T00:08:14.033Z,30.60
2018-12-14T00:08:45.176Z,30.43
2018-12-14T00:09:16.292Z,33.58
2018-12-14T00:09:47.421Z,33.10
2018-12-14T00:10:18.534Z,35.05
2018-12-14T00:10:49.651Z,34.38
2018-12-14T00:11:20.763Z,32.50
2018-12-14T00:11:51.870Z,34.83
2018-12-14T00:12:23.026Z,35.80
2018-12-14T00:12:54.126Z,34.50
2018-12-14T00:13:25.237Z,34.25
2018-12-14T00:13:56.348Z,34.40
2018-12-14T00:14:27.466Z,32.20
2018-12-14T00:14:58.569Z,32.50
2018-12-14T00:15:29.685Z,31.45
2018-12-14T00:16:00.800Z,30.82
2018-12-14T00:16:31.941Z,28.52
2018-12-14T00:17:03.066Z,30.55
2018-12-14T00:17:34.212Z,31.37
2018-12-14T00:18:05.539Z,30.32
2018-12-14T00:18:36.701Z,31.62
2018-12-14T00:19:07.823Z,30.80
2018-12-14T00:19:38.951Z,31.70
2018-12-14T00:20:10.060Z,30.70
2018-12-14T00:20:41.185Z,32.13
2018-12-14T00:21:12.297Z,31.27
2018-12-14T00:21:43.404Z,30.77
2018-12-14T00:22:14.530Z,32.17
2018-12-14T00:22:45.698Z,31.62
2018-12-14T00:23:16.829Z,32.42
2018-12-14T00:23:47.933Z,32.45
2018-12-14T00:24:19.039Z,31.85
2018-12-14T00:24:50.157Z,33.05
2018-12-14T00:25:21.276Z,33.38
2018-12-14T00:25:52.378Z,32.13
2018-12-14T00:26:23.496Z,30.85
2018-12-14T00:26:54.661Z,32.35
2018-12-14T00:27:26.050Z,34.80
2018-12-14T00:27:57.207Z,32.85
2018-12-14T00:28:28.326Z,34.20
2018-12-14T00:28:59.453Z,35.83
2018-12-14T00:29:30.564Z,34.08
2018-12-14T00:30:01.678Z,33.78
2018-12-14T00:30:32.804Z,36.00
2018-12-14T00:31:03.912Z,37.10
2018-12-14T00:31:35.016Z,37.85
2018-12-14T00:32:06.141Z,36.98
2018-12-14T00:32:37.253Z,36.73
2018-12-14T00:33:08.404Z,36.30
2018-12-14T00:33:39.519Z,37.80
2018-12-14T00:34:10.896Z,35.17
2018-12-14T00:34:41.987Z,34.00
2018-12-14T00:35:13.104Z,33.85
2018-12-14T00:35:44.227Z,33.10
2018-12-14T00:36:15.620Z,33.90
2018-12-14T00:36:46.729Z,32.25
2018-12-14T00:37:17.849Z,32.90
2018-12-14T00:37:48.965Z,34.18
2018-12-14T00:38:20.120Z,35.58
2018-12-14T00:38:51.242Z,36.65
2018-12-14T00:39:22.348Z,36.68
2018-12-14T00:39:53.501Z,36.23
2018-12-14T00:40:24.642Z,35.90
2018-12-14T00:40:55.792Z,32.13
2018-12-14T00:41:26.897Z,35.03
2018-12-14T00:41:58.013Z,36.25
2018-12-14T00:42:29.121Z,37.35
2018-12-14T00:43:00.233Z,34.78
2018-12-14T00:43:31.336Z,33.85
2018-12-14T00:44:02.449Z,33.75
2018-12-14T00:44:33.563Z,32.17
2018-12-14T00:45:04.668Z,32.93
2018-12-14T00:45:35.817Z,35.78
2018-12-14T00:46:06.928Z,37.45
2018-12-14T00:46:38.112Z,36.60
2018-12-14T00:47:09.349Z,35.17
2018-12-14T00:47:40.516Z,35.10
2018-12-14T00:48:11.749Z,37.13
2018-12-14T00:48:42.862Z,36.75
2018-12-14T00:49:13.989Z,36.13
2018-12-14T00:49:45.104Z,38.20
2018-12-14T00:50:16.351Z,36.85
2018-12-14T00:50:47.497Z,37.38
2018-12-14T00:51:18.620Z,36.10
2018-12-14T00:51:49.772Z,36.60
2018-12-14T00:52:20.885Z,37.33
2018-12-14T00:52:52.007Z,37.42
2018-12-14T00:53:23.141Z,37.17
2018-12-14T00:53:55.178Z,34.60
2018-12-14T00:54:26.296Z,35.70
2018-12-14T00:54:57.453Z,35.50
2018-12-14T00:55:28.556Z,33.78
2018-12-14T00:55:59.719Z,34.83
2018-12-14T00:56:30.831Z,33.92
2018-12-14T00:57:01.948Z,35.35
2018-12-14T00:57:33.096Z,36.35
2018-12-14T00:58:04.218Z,37.42
2018-12-14T00:58:35.326Z,37.65
2018-12-14T00:59:06.455Z,38.15
2018-12-14T00:59:37.654Z,37.40
2018-12-14T01:00:08.766Z,34.10
2018-12-14T01:00:39.876Z,35.00
2018-12-14T01:01:11.009Z,36.90
2018-12-14T01:01:42.122Z,36.00
2018-12-14T01:02:13.346Z,35.52
2018-12-14T01:02:44.462Z,38.42
2018-12-14T01:03:15.565Z,36.10
2018-12-14T01:03:46.723Z,36.28
2018-12-14T01:04:17.832Z,36.53
2018-12-14T01:04:48.990Z,36.25
2018-12-14T01:05:20.105Z,37.23
2018-12-14T01:05:51.222Z,35.75
2018-12-14T01:06:22.333Z,33.92
2018-12-14T01:06:53.471Z,35.10
2018-12-14T01:07:24.641Z,36.28
2018-12-14T01:07:55.770Z,35.43
2018-12-14T01:08:26.883Z,35.65
2018-12-14T01:08:58.051Z,33.48
2018-12-14T01:09:29.173Z,34.10
2018-12-14T01:10:00.327Z,34.80
2018-12-14T01:10:31.532Z,36.23
2018-12-14T01:11:02.649Z,36.03
2018-12-14T01:11:33.773Z,35.33
2018-12-14T01:12:04.889Z,34.83
2018-12-14T01:12:36.004Z,34.95
2018-12-14T01:13:07.113Z,34.58
2018-12-14T01:13:38.269Z,35.68
2018-12-14T01:14:09.394Z,34.85
2018-12-14T01:14:40.554Z,33.92
2018-12-14T01:15:11.667Z,34.80
2018-12-14T01:15:42.886Z,32.80
2018-12-14T01:16:14.010Z,31.57
2018-12-14T01:16:45.134Z,33.58
2018-12-14T01:17:16.289Z,32.48
2018-12-14T01:17:49.202Z,34.25
2018-12-14T01:18:20.337Z,30.97
2018-12-14T01:18:51.477Z,29.87
2018-12-14T01:19:22.596Z,33.15
2018-12-14T01:19:53.757Z,32.38
2018-12-14T01:20:24.872Z,33.33
2018-12-14T01:20:56.007Z,31.20
2018-12-14T01:21:27.545Z,30.80
2018-12-14T01:21:58.690Z,27.77
2018-12-14T01:22:29.818Z,31.45
2018-12-14T01:23:00.933Z,28.90
2018-12-14T01:23:32.031Z,29.92
2018-12-14T01:24:03.137Z,34.05
2018-12-14T01:24:34.274Z,34.33
2018-12-14T01:25:05.400Z,35.60
2018-12-14T01:25:36.521Z,37.05
2018-12-14T01:26:07.650Z,36.83
2018-12-14T01:26:38.778Z,36.03
2018-12-14T01:27:09.934Z,37.80
2018-12-14T01:27:41.060Z,37.60
2018-12-14T01:28:12.219Z,37.03
2018-12-14T01:28:43.371Z,37.10
2018-12-14T01:29:14.509Z,38.30
2018-12-14T01:29:45.634Z,38.40
2018-12-14T01:30:16.749Z,36.70
2018-12-14T01:30:47.870Z,36.63
2018-12-14T01:31:18.980Z,36.98
2018-12-14T01:31:50.087Z,35.23
2018-12-14T01:32:21.194Z,33.55
2018-12-14T01:32:52.315Z,32.58
2018-12-14T01:33:23.485Z,32.58
2018-12-14T01:33:54.601Z,39.23
2018-12-14T01:34:25.756Z,34.90
2018-12-14T01:34:56.887Z,28.42
2018-12-14T01:35:28.009Z,28.32
2018-12-14T01:35:59.160Z,28.52
2018-12-14T01:36:30.324Z,29.50
2018-12-14T01:37:01.460Z,28.32
2018-12-14T01:37:32.581Z,27.22
2018-12-14T01:38:03.683Z,28.45
2018-12-14T01:38:34.793Z,28.05
2018-12-14T01:39:05.904Z,24.27
2018-12-14T01:39:37.007Z,25.17
2018-12-14T01:40:08.198Z,26.25
2018-12-14T01:40:39.444Z,27.30
2018-12-14T01:41:10.561Z,30.10
2018-12-14T01:41:41.682Z,27.25
2018-12-14T01:42:12.792Z,28.17
2018-12-14T01:42:43.906Z,26.65
2018-12-14T01:43:15.021Z,24.50
2018-12-14T01:43:46.124Z,22.45
2018-12-14T01:44:17.238Z,22.32
2018-12-14T01:44:48.344Z,19.80
2018-12-14T01:45:19.483Z,19.62
2018-12-14T01:45:50.616Z,22.32
2018-12-14T01:46:21.832Z,21.95
2018-12-14T01:46:52.941Z,24.85
2018-12-14T01:47:24.047Z,23.50
2018-12-14T01:47:55.203Z,24.85
2018-12-14T01:48:26.307Z,24.10
2018-12-14T01:48:57.412Z,23.30
2018-12-14T01:49:28.516Z,25.30
2018-12-14T01:49:59.624Z,25.12
2018-12-14T01:50:30.736Z,25.43
2018-12-14T01:51:01.896Z,23.55
2018-12-14T01:51:33.535Z,23.50
2018-12-14T01:52:04.630Z,27.05
2018-12-14T01:52:35.744Z,24.27
2018-12-14T01:53:06.845Z,24.70
2018-12-14T01:53:37.959Z,25.05
2018-12-14T01:54:09.075Z,26.15
2018-12-14T01:54:40.183Z,26.95
2018-12-14T01:55:11.289Z,29.25
2018-12-14T01:55:42.457Z,28.77
2018-12-14T01:56:13.567Z,27.65
2018-12-14T01:56:44.684Z,27.85
2018-12-14T01:57:15.788Z,24.95
2018-12-14T01:57:46.897Z,23.00
2018-12-14T01:58:18.006Z,26.30
2018-12-14T01:58:49.111Z,30.00
2018-12-14T01:59:20.222Z,28.92
2018-12-14T01:59:51.329Z,31.12
2018-12-14T02:00:22.437Z,34.15
2018-12-14T02:00:53.920Z,36.15
2018-12-14T02:01:25.049Z,37.15
2018-12-14T02:01:56.173Z,37.15
2018-12-14T02:02:27.278Z,39.92
2018-12-14T02:02:58.384Z,38.05
2018-12-14T02:03:29.485Z,37.53
2018-12-14T02:04:00.755Z,36.63
2018-12-14T02:04:31.898Z,37.38
2018-12-14T02:05:03.021Z,38.80
2018-12-14T02:05:34.133Z,37.73
2018-12-14T02:06:05.293Z,37.20
2018-12-14T02:06:36.443Z,38.88
2018-12-14T02:07:07.549Z,37.98
2018-12-14T02:07:38.655Z,37.85
2018-12-14T02:08:09.770Z,39.95
2018-12-14T02:08:40.920Z,38.02
2018-12-14T02:09:12.042Z,39.95
2018-12-14T02:09:43.153Z,39.75
2018-12-14T02:10:14.269Z,42.10
2018-12-14T02:10:45.372Z,40.10
2018-12-14T02:11:16.523Z,40.25
2018-12-14T02:11:47.628Z,38.45
2018-12-14T02:12:18.745Z,41.42
2018-12-14T02:12:49.848Z,42.58
2018-12-14T02:13:21.021Z,39.95
2018-12-14T02:13:52.127Z,41.95
2018-12-14T02:14:23.252Z,39.80
2018-12-14T02:14:54.353Z,40.08
2018-12-14T02:15:25.464Z,42.48
2018-12-14T02:15:56.581Z,41.05
2018-12-14T02:16:27.680Z,40.83
2018-12-14T02:16:58.839Z,42.78
2018-12-14T02:17:29.953Z,43.05
2018-12-14T02:18:01.067Z,42.67
2018-12-14T02:18:32.174Z,41.48
2018-12-14T02:19:03.280Z,41.37
2018-12-14T02:19:34.382Z,43.20
2018-12-14T02:20:05.480Z,43.50
2018-12-14T02:20:36.635Z,42.50
2018-12-14T02:21:07.737Z,42.73
2018-12-14T02:21:39.064Z,43.15
2018-12-14T02:22:10.207Z,42.45
2018-12-14T02:22:41.313Z,41.55
2018-12-14T02:23:12.427Z,42.40
2018-12-14T02:23:43.532Z,41.73
2018-12-14T02:24:14.636Z,41.63
2018-12-14T02:24:45.745Z,42.08
2018-12-14T02:25:16.850Z,41.83
2018-12-14T02:25:47.985Z,42.60
2018-12-14T02:26:19.127Z,43.23
2018-12-14T02:26:50.248Z,43.50
2018-12-14T02:27:21.360Z,43.23
2018-12-14T02:27:52.462Z,43.50
2018-12-14T02:28:23.597Z,44.20
2018-12-14T02:28:54.696Z,43.28
2018-12-14T02:29:25.814Z,43.45
2018-12-14T02:29:56.918Z,43.75
2018-12-14T02:30:28.061Z,43.90
2018-12-14T02:30:59.172Z,45.20
2018-12-14T02:31:30.277Z,42.93
2018-12-14T02:32:01.380Z,45.60
2018-12-14T02:32:32.530Z,44.33
2018-12-14T02:33:03.645Z,44.33
2018-12-14T02:33:34.764Z,43.20
2018-12-14T02:34:05.887Z,43.90
2018-12-14T02:34:36.991Z,42.78
2018-12-14T02:35:08.117Z,43.10
2018-12-14T02:35:39.251Z,43.05
2018-12-14T02:36:10.368Z,44.05
2018-12-14T02:36:41.481Z,44.05
2018-12-14T02:37:12.599Z,45.17
2018-12-14T02:37:43.717Z,44.27
2018-12-14T02:38:14.826Z,45.00
2018-12-14T02:38:45.938Z,45.40
2018-12-14T02:39:17.054Z,45.38
2018-12-14T02:39:48.165Z,43.83
2018-12-14T02:40:19.400Z,44.10
2018-12-14T02:40:50.544Z,45.60
2018-12-14T02:41:21.665Z,45.83
2018-12-14T02:41:52.783Z,45.98
2018-12-14T02:42:23.885Z,45.30
2018-12-14T02:42:54.994Z,38.53
2018-12-14T02:43:26.117Z,37.23
2018-12-14T02:43:57.261Z,38.35
2018-12-14T02:44:29.384Z,39.30
2018-12-14T02:45:00.505Z,38.10
2018-12-14T02:45:31.608Z,37.48
2018-12-14T02:46:02.712Z,35.23
2018-12-14T02:46:33.867Z,37.83
2018-12-14T02:47:04.978Z,36.48
2018-12-14T02:47:36.101Z,32.10
2018-12-14T02:48:07.213Z,29.87
2018-12-14T02:48:38.369Z,33.63
2018-12-14T02:49:09.492Z,39.40
2018-12-14T02:49:40.591Z,39.85
2018-12-14T02:50:11.707Z,37.60
2018-12-14T02:50:42.857Z,38.67
2018-12-14T02:51:14.026Z,39.80
2018-12-14T02:51:45.149Z,38.60
2018-12-14T02:52:16.270Z,38.02
2018-12-14T02:52:47.389Z,37.60
2018-12-14T02:53:18.502Z,38.25
2018-12-14T02:53:49.612Z,37.13
2018-12-14T02:54:20.805Z,36.63
2018-12-14T02:54:51.921Z,35.80
2018-12-14T02:55:23.060Z,37.13
2018-12-14T02:55:54.176Z,37.80
2018-12-14T02:56:25.354Z,33.58
2018-12-14T02:56:56.476Z,33.67
2018-12-14T02:57:27.579Z,35.92
2018-12-14T02:57:58.696Z,34.95
2018-12-14T02:58:29.807Z,35.15
2018-12-14T02:59:00.934Z,37.05
2018-12-14T02:59:32.090Z,37.73
2018-12-14T03:00:03.236Z,38.73
2018-12-14T03:00:35.024Z,38.78
2018-12-14T03:01:06.138Z,36.60
2018-12-14T03:01:37.260Z,36.33
2018-12-14T03:02:08.364Z,38.48
2018-12-14T03:02:39.513Z,36.95
2018-12-14T03:03:10.624Z,37.67
2018-12-14T03:03:41.730Z,38.53
2018-12-14T03:04:12.853Z,38.13
2018-12-14T03:04:43.995Z,37.73
2018-12-14T03:05:15.119Z,38.88
2018-12-14T03:05:46.273Z,36.00
2018-12-14T03:06:17.409Z,38.95
2018-12-14T03:06:48.649Z,38.95
2018-12-14T03:07:19.762Z,41.25
2018-12-14T03:07:50.866Z,39.88
2018-12-14T03:08:21.977Z,41.23
2018-12-14T03:08:53.098Z,40.50
2018-12-14T03:09:24.277Z,40.50
2018-12-14T03:09:55.421Z,40.83
2018-12-14T03:10:26.631Z,41.15
2018-12-14T03:10:57.761Z,40.40
2018-12-14T03:11:28.880Z,41.45
2018-12-14T03:12:00.000Z,39.95
2018-12-14T03:12:31.128Z,42.48
2018-12-14T03:13:02.252Z,40.38
2018-12-14T03:13:33.393Z,41.70
2018-12-14T03:14:04.561Z,41.33
2018-12-14T03:14:35.667Z,38.20
2018-12-14T03:15:06.777Z,37.25
2018-12-14T03:15:37.884Z,36.08
2018-12-14T03:16:08.996Z,38.20
2018-12-14T03:16:40.110Z,38.63
2018-12-14T03:17:11.226Z,31.97
2018-12-14T03:17:42.348Z,32.13
2018-12-14T03:18:13.457Z,34.63
2018-12-14T03:18:44.566Z,35.05
2018-12-14T03:19:15.742Z,35.35
2018-12-14T03:19:46.853Z,35.88
2018-12-14T03:20:17.975Z,35.00
2018-12-14T03:20:49.204Z,32.95
2018-12-14T03:21:20.389Z,35.60
2018-12-14T03:21:51.519Z,35.35
2018-12-14T03:22:22.629Z,35.75
2018-12-14T03:22:53.740Z,36.03
2018-12-14T03:23:24.836Z,35.52
2018-12-14T03:23:56.006Z,33.78
2018-12-14T03:24:27.116Z,34.10
2018-12-14T03:24:58.224Z,33.85
2018-12-14T03:25:29.344Z,33.73
2018-12-14T03:26:00.445Z,36.25
2018-12-14T03:26:31.925Z,34.25
2018-12-14T03:27:07.098Z,35.43
2018-12-14T03:27:38.347Z,35.58
2018-12-14T03:28:09.479Z,34.98
2018-12-14T03:28:46.557Z,36.00
2018-12-14T03:29:17.679Z,36.60
2018-12-14T03:29:48.790Z,34.60
2018-12-14T03:30:19.935Z,34.70
2018-12-14T03:30:51.045Z,36.30
2018-12-14T03:31:22.186Z,35.03
2018-12-14T03:31:53.340Z,34.40
2018-12-14T03:32:24.576Z,34.78
2018-12-14T03:32:55.799Z,35.08
2018-12-14T03:33:26.922Z,35.10
2018-12-14T03:33:58.026Z,36.33
2018-12-14T03:34:29.151Z,37.38
2018-12-14T03:35:00.278Z,37.35
2018-12-14T03:35:31.512Z,38.48
2018-12-14T03:36:02.673Z,38.10
2018-12-14T03:36:33.917Z,38.67
2018-12-14T03:37:05.033Z,37.98
2018-12-14T03:37:36.147Z,34.30
2018-12-14T03:38:07.252Z,36.23
2018-12-14T03:38:38.352Z,37.38
2018-12-14T03:39:09.497Z,36.23
2018-12-14T03:39:40.609Z,35.20
2018-12-14T03:40:11.712Z,34.03
2018-12-14T03:40:42.824Z,32.90
2018-12-14T03:41:13.975Z,32.65
2018-12-14T03:41:45.077Z,30.50
2018-12-14T03:42:16.228Z,29.82
2018-12-14T03:42:47.341Z,29.50
2018-12-14T03:43:18.520Z,30.30
2018-12-14T03:43:49.641Z,31.12
2018-12-14T03:44:20.755Z,30.55
2018-12-14T03:44:51.889Z,30.45
2018-12-14T03:45:23.000Z,30.08
2018-12-14T03:45:54.117Z,31.17
2018-12-14T03:46:25.234Z,30.15
2018-12-14T03:46:56.341Z,31.45
2018-12-14T03:47:27.447Z,29.98
2018-12-14T03:47:58.598Z,29.32
2018-12-14T03:48:29.707Z,31.17
2018-12-14T03:49:00.805Z,30.68
2018-12-14T03:49:31.914Z,31.90
2018-12-14T03:50:03.025Z,31.12
2018-12-14T03:50:34.128Z,32.35
2018-12-14T03:51:05.240Z,31.37
2018-12-14T03:51:36.355Z,32.28
2018-12-14T03:52:07.818Z,31.62
2018-12-14T03:52:38.992Z,31.70
2018-12-14T03:53:10.146Z,31.55
2018-12-14T03:53:41.284Z,30.32
2018-12-14T03:54:12.397Z,32.83
2018-12-14T03:54:43.511Z,34.10
2018-12-14T03:55:14.635Z,33.05
2018-12-14T03:55:45.738Z,33.70
2018-12-14T03:56:16.848Z,33.10
2018-12-14T03:56:47.952Z,34.75
2018-12-14T03:57:19.068Z,34.03
2018-12-14T03:57:50.183Z,35.38
2018-12-14T03:58:21.330Z,37.40
2018-12-14T03:58:52.440Z,37.20
2018-12-14T03:59:23.556Z,37.60
2018-12-14T03:59:54.659Z,41.37
2018-12-14T04:00:25.818Z,41.23
2018-12-14T04:00:56.940Z,42.43
2018-12-14T04:01:28.039Z,43.13
2018-12-14T04:01:59.149Z,41.35
2018-12-14T04:02:30.275Z,40.90
2018-12-14T04:03:01.395Z,41.70
2018-12-14T04:03:32.548Z,42.90
2018-12-14T04:04:03.662Z,42.00
2018-12-14T04:04:34.775Z,43.25
2018-12-14T04:05:05.903Z,43.00
2018-12-14T04:05:37.021Z,42.53
2018-12-14T04:06:08.141Z,43.80
2018-12-14T04:06:39.278Z,43.98
2018-12-14T04:07:10.398Z,42.17
2018-12-14T04:07:41.509Z,44.38
2018-12-14T04:08:12.617Z,42.43
2018-12-14T04:08:43.768Z,42.95
2018-12-14T04:09:14.890Z,43.15
2018-12-14T04:09:49.487Z,43.90
2018-12-14T04:10:20.631Z,44.20
2018-12-14T04:10:51.755Z,44.23
2018-12-14T04:11:22.984Z,43.70
2018-12-14T04:11:54.098Z,43.98
2018-12-14T04:12:25.216Z,42.27
2018-12-14T04:12:56.344Z,44.50
2018-12-14T04:13:27.456Z,42.90
2018-12-14T04:13:59.598Z,42.30
2018-12-14T04:14:30.703Z,43.85
2018-12-14T04:15:01.819Z,43.13
2018-12-14T04:15:32.935Z,44.27
2018-12-14T04:16:04.057Z,43.55
2018-12-14T04:16:35.216Z,45.67
2018-12-14T04:17:06.332Z,43.92
2018-12-14T04:17:37.451Z,45.30
2018-12-14T04:18:08.569Z,45.12
2018-12-14T04:18:39.685Z,44.45
2018-12-14T04:19:10.820Z,44.55
2018-12-14T04:19:41.955Z,43.52
2018-12-14T04:20:13.134Z,43.50
2018-12-14T04:20:44.253Z,45.05
2018-12-14T04:21:15.361Z,44.88
2018-12-14T04:21:46.487Z,43.65
2018-12-14T04:22:17.643Z,45.50
2018-12-14T04:22:48.759Z,45.00
2018-12-14T04:23:19.869Z,44.63
2018-12-14T04:23:50.994Z,44.63
2018-12-14T04:24:22.099Z,46.05
2018-12-14T04:24:54.503Z,46.33
2018-12-14T04:25:25.748Z,45.17
2018-12-14T04:25:56.917Z,44.45
2018-12-14T04:26:28.039Z,44.67
2018-12-14T04:26:59.160Z,45.80
2018-12-14T04:27:30.414Z,43.28
2018-12-14T04:28:01.545Z,42.98
2018-12-14T04:28:32.789Z,44.85
2018-12-14T04:29:03.901Z,44.15
2018-12-14T04:29:35.048Z,42.65
2018-12-14T04:30:06.194Z,45.48
2018-12-14T04:30:37.320Z,43.33
2018-12-14T04:31:08.443Z,45.73
2018-12-14T04:31:39.548Z,44.18
2018-12-14T04:32:10.660Z,46.28
2018-12-14T04:32:41.779Z,44.20
2018-12-14T04:33:12.965Z,43.68
2018-12-14T04:33:44.082Z,41.00
2018-12-14T04:34:15.191Z,39.85
2018-12-14T04:34:46.298Z,42.85
2018-12-14T04:35:17.411Z,43.58
2018-12-14T04:35:48.525Z,45.30
2018-12-14T04:36:19.644Z,44.05
2018-12-14T04:36:50.811Z,43.95
2018-12-14T04:37:21.926Z,40.78
2018-12-14T04:37:53.057Z,38.28
2018-12-14T04:38:24.180Z,44.08
2018-12-14T04:38:55.289Z,43.35
2018-12-14T04:39:26.502Z,43.92
2018-12-14T04:39:57.697Z,42.45
2018-12-14T04:41:07.504Z,41.42
2018-12-14T04:41:38.622Z,42.48
2018-12-14T04:42:09.728Z,42.35
2018-12-14T04:42:40.841Z,43.48
2018-12-14T04:43:11.947Z,40.40
2018-12-14T04:43:43.057Z,29.27
2018-12-14T04:44:14.200Z,32.17
2018-12-14T04:44:45.314Z,31.20
2018-12-14T04:45:16.449Z,33.58
2018-12-14T04:45:47.566Z,37.70
2018-12-14T04:46:18.669Z,39.03
2018-12-14T04:46:49.805Z,37.45
2018-12-14T04:47:20.917Z,38.40
2018-12-14T04:47:52.027Z,40.08
2018-12-14T04:48:23.135Z,39.33
2018-12-14T04:48:54.271Z,41.25
2018-12-14T04:49:26.318Z,37.70
2018-12-14T04:49:57.431Z,36.83
2018-12-14T04:50:28.534Z,37.45
2018-12-14T04:50:59.651Z,38.45
2018-12-14T04:51:30.784Z,38.05
2018-12-14T04:52:01.897Z,38.48
2018-12-14T04:52:33.003Z,36.80
2018-12-14T04:53:04.154Z,37.35
2018-12-14T04:53:35.269Z,32.45
2018-12-14T04:54:06.382Z,34.80
2018-12-14T04:54:37.497Z,33.10
2018-12-14T04:55:08.611Z,34.73
2018-12-14T04:55:39.757Z,36.68
2018-12-14T04:56:10.883Z,35.75
2018-12-14T04:56:42.009Z,37.67
2018-12-14T04:57:13.119Z,38.58
2018-12-14T04:57:44.258Z,37.53
2018-12-14T04:58:15.360Z,37.13
2018-12-14T04:58:46.473Z,38.60
2018-12-14T04:59:17.658Z,34.48
2018-12-14T04:59:48.828Z,34.25
2018-12-14T05:00:19.996Z,33.35
2018-12-14T05:00:51.106Z,32.45
2018-12-14T05:01:22.222Z,32.38
2018-12-14T05:01:53.343Z,32.90
2018-12-14T05:02:24.502Z,33.10
2018-12-14T05:02:55.622Z,33.45
2018-12-14T05:03:26.745Z,31.35
2018-12-14T05:03:57.848Z,32.28
2018-12-14T05:04:28.970Z,31.75
2018-12-14T05:05:00.126Z,31.90
2018-12-14T05:05:31.244Z,34.38
2018-12-14T05:06:02.362Z,33.42
2018-12-14T05:06:33.478Z,34.20
2018-12-14T05:07:04.607Z,34.00
2018-12-14T05:07:35.730Z,34.35
2018-12-14T05:08:06.844Z,36.38
2018-12-14T05:08:37.954Z,34.10
2018-12-14T05:09:09.078Z,36.20
2018-12-14T05:09:40.192Z,37.38
2018-12-14T05:10:11.379Z,35.65
2018-12-14T05:10:42.505Z,36.05
2018-12-14T05:11:13.615Z,36.60
2018-12-14T05:11:44.724Z,33.63
2018-12-14T05:12:15.838Z,33.78
2018-12-14T05:12:46.964Z,35.10
2018-12-14T05:13:18.084Z,35.23
2018-12-14T05:13:49.207Z,36.28
2018-12-14T05:14:20.320Z,35.63
2018-12-14T05:14:51.435Z,33.90
2018-12-14T05:15:22.595Z,31.40
2018-12-14T05:15:53.725Z,33.30
2018-12-14T05:16:24.866Z,31.77
2018-12-14T05:16:56.021Z,32.10
2018-12-14T05:17:27.172Z,33.05
2018-12-14T05:17:58.292Z,33.13
2018-12-14T05:18:29.395Z,32.13
2018-12-14T05:19:00.514Z,30.02
2018-12-14T05:19:31.643Z,29.20
2018-12-14T05:20:02.762Z,30.43
2018-12-14T05:20:33.864Z,31.23
2018-12-14T05:21:04.964Z,29.92
2018-12-14T05:21:36.077Z,30.05
2018-12-14T05:22:07.202Z,29.85
2018-12-14T05:22:38.371Z,30.35
2018-12-14T05:23:09.542Z,30.40
2018-12-14T05:23:40.642Z,32.88
2018-12-14T05:24:11.749Z,32.15
2018-12-14T05:24:42.868Z,30.65
2018-12-14T05:25:13.973Z,32.30
2018-12-14T05:25:45.085Z,30.80
2018-12-14T05:26:16.242Z,30.05
2018-12-14T05:26:47.406Z,31.70
2018-12-14T05:27:18.536Z,30.48
2018-12-14T05:27:49.646Z,30.75
2018-12-14T05:28:20.752Z,31.17
2018-12-14T05:28:51.852Z,29.60
2018-12-14T05:29:22.951Z,29.75
2018-12-14T05:29:54.073Z,30.40
2018-12-14T05:30:25.235Z,29.15
2018-12-14T05:30:56.367Z,29.77
2018-12-14T05:31:27.493Z,29.95
2018-12-14T05:31:58.626Z,28.65
2018-12-14T05:32:29.740Z,28.32
2018-12-14T05:33:00.861Z,28.60
2018-12-14T05:33:31.977Z,28.60
2018-12-14T05:34:03.139Z,26.15
2018-12-14T05:34:34.255Z,26.70
2018-12-14T05:35:05.374Z,28.20
2018-12-14T05:35:36.487Z,28.77
2018-12-14T05:36:07.609Z,28.67
2018-12-14T05:36:38.715Z,29.37
2018-12-14T05:37:09.820Z,29.40
2018-12-14T05:37:40.929Z,27.60
2018-12-14T05:38:12.032Z,29.35
2018-12-14T05:38:43.144Z,30.80
2018-12-14T05:39:14.289Z,30.35
2018-12-14T05:39:45.521Z,29.42
2018-12-14T05:40:16.630Z,30.43
2018-12-14T05:40:47.760Z,31.42
2018-12-14T05:41:18.876Z,31.95
2018-12-14T05:41:49.990Z,30.82
2018-12-14T05:42:21.097Z,31.35
2018-12-14T05:42:52.225Z,31.35
2018-12-14T05:43:23.332Z,30.60
2018-12-14T05:43:54.446Z,30.37
2018-12-14T05:44:25.599Z,30.70
2018-12-14T05:44:56.742Z,30.97
2018-12-14T05:45:27.861Z,30.80
2018-12-14T05:45:58.973Z,29.40
2018-12-14T05:46:30.089Z,29.35
2018-12-14T05:47:01.197Z,29.55
2018-12-14T05:47:32.348Z,29.30
2018-12-14T05:48:03.473Z,29.40
2018-12-14T05:48:34.597Z,28.77
2018-12-14T05:49:05.709Z,26.42
2018-12-14T05:49:36.825Z,25.62
2018-12-14T05:50:07.973Z,27.48
2018-12-14T05:50:39.084Z,26.12
2018-12-14T05:51:10.249Z,25.90
2018-12-14T05:51:41.353Z,24.85
2018-12-14T05:52:12.457Z,23.62
2018-12-14T05:52:43.568Z,25.02
2018-12-14T05:53:14.674Z,23.57
2018-12-14T05:53:45.791Z,25.85
2018-12-14T05:54:16.913Z,26.07
2018-12-14T05:54:48.031Z,23.35
2018-12-14T05:55:19.149Z,24.98
2018-12-14T05:55:50.276Z,25.60
2018-12-14T05:56:21.419Z,26.65
2018-12-14T05:56:52.566Z,26.55
2018-12-14T05:57:23.675Z,26.17
2018-12-14T05:57:54.787Z,27.13
2018-12-14T05:58:26.023Z,27.80
2018-12-14T05:58:57.247Z,28.20
2018-12-14T05:59:28.360Z,27.10
2018-12-14T05:59:59.489Z,27.95
2018-12-14T06:00:30.636Z,27.25
2018-12-14T06:01:01.741Z,27.48
2018-12-14T06:01:33.103Z,26.35
2018-12-14T06:02:04.224Z,24.98
2018-12-14T06:02:35.345Z,25.82
2018-12-14T06:03:06.464Z,26.75
2018-12-14T06:03:37.577Z,23.80
2018-12-14T06:04:08.692Z,27.00
2018-12-14T06:04:39.805Z,26.85
2018-12-14T06:05:10.948Z,26.97
2018-12-14T06:05:42.068Z,26.77
2018-12-14T06:06:13.209Z,24.77
2018-12-14T06:06:44.385Z,26.62
2018-12-14T06:07:15.506Z,26.02
2018-12-14T06:07:46.622Z,26.62
2018-12-14T06:08:17.754Z,26.02
2018-12-14T06:08:48.864Z,26.02
2018-12-14T06:09:19.984Z,25.82
2018-12-14T06:09:51.100Z,25.82
2018-12-14T06:10:22.216Z,26.62
2018-12-14T06:10:53.514Z,27.40
2018-12-14T06:11:24.694Z,27.30
2018-12-14T06:11:55.836Z,26.48
2018-12-14T06:12:26.954Z,26.15
2018-12-14T06:12:58.072Z,25.57
2018-12-14T06:13:29.190Z,26.20
2018-12-14T06:14:00.296Z,25.82
2018-12-14T06:14:31.410Z,26.15
2018-12-14T06:15:02.541Z,26.87
2018-12-14T06:15:33.666Z,25.80
2018-12-14T06:16:04.780Z,26.93
2018-12-14T06:16:35.943Z,26.50
2018-12-14T06:17:07.061Z,27.52
2018-12-14T06:17:38.173Z,28.55
2018-12-14T06:18:09.285Z,28.67
2018-12-14T06:18:40.432Z,29.30
2018-12-14T06:19:11.587Z,29.60
2018-12-14T06:19:42.706Z,29.35
2018-12-14T06:20:13.820Z,28.95
2018-12-14T06:20:44.922Z,29.90
2018-12-14T06:21:16.039Z,28.85
2018-12-14T06:21:47.154Z,29.98
2018-12-14T06:22:18.266Z,29.65
2018-12-14T06:22:49.379Z,29.12
2018-12-14T06:23:20.512Z,29.77
2018-12-14T06:23:51.636Z,31.48
2018-12-14T06:24:22.781Z,29.98
2018-12-14T06:24:53.902Z,29.63
2018-12-14T06:25:25.014Z,28.42
2018-12-14T06:25:56.128Z,27.07
2018-12-14T06:26:27.237Z,27.95
2018-12-14T06:26:58.352Z,29.67
2018-12-14T06:27:30.410Z,29.48
2018-12-14T06:28:01.529Z,30.50
2018-12-14T06:28:32.678Z,31.00
2018-12-14T06:29:03.786Z,31.35
2018-12-14T06:29:34.901Z,29.92
2018-12-14T06:30:06.009Z,30.27
2018-12-14T06:30:37.113Z,27.98
2018-12-14T06:31:08.269Z,27.98
2018-12-14T06:31:39.370Z,29.45
2018-12-14T06:32:10.471Z,28.00
2018-12-14T06:32:41.589Z,28.20
2018-12-14T06:33:12.713Z,28.90
2018-12-14T06:33:43.823Z,27.82
2018-12-14T06:34:14.972Z,28.50
2018-12-14T06:34:46.086Z,32.35
2018-12-14T06:35:17.207Z,34.23
2018-12-14T06:35:48.388Z,35.75
2018-12-14T06:36:19.563Z,35.25
2018-12-14T06:36:50.670Z,30.77
2018-12-14T06:37:21.788Z,33.40
2018-12-14T06:37:52.902Z,33.85
2018-12-14T06:38:24.017Z,33.78
2018-12-14T06:38:55.128Z,35.75
2018-12-14T06:39:26.268Z,36.53
2018-12-14T06:39:57.373Z,36.70
2018-12-14T06:40:28.480Z,35.70
2018-12-14T06:40:59.595Z,34.70
2018-12-14T06:41:30.714Z,34.50
2018-12-14T06:42:01.827Z,33.50